createdAt,value
2018-12-26T00:02:27.327Z,5.40
2018-12-26T00:04:58.160Z,5.30
2018-12-26T00:07:28.825Z,5.30
2018-12-26T00:10:01.740Z,5.40
2018-12-26T00:12:35.169Z,5.40
2018-12-26T00:15:05.921Z,5.30
2018-12-26T00:17:36.664Z,5.30
2018-12-26T00:20:07.548Z,5.30
2018-12-26T00:22:38.628Z,5.40
2018-12-26T00:25:09.889Z,5.30
2018-12-26T00:27:42.785Z,5.40
2018-12-26T00:30:13.693Z,5.40
2018-12-26T00:32:44.738Z,5.30
2018-12-26T00:35:15.999Z,5.40
2018-12-26T00:37:46.879Z,5.40
2018-12-26T00:40:19.788Z,5.40
2018-12-26T00:42:50.612Z,5.40
2018-12-26T00:45:21.436Z,5.50
2018-12-26T00:47:52.339Z,5.50
2018-12-26T00:50:23.059Z,5.50
2018-12-26T00:52:54.341Z,5.50
2018-12-26T00:55:26.115Z,5.50
2018-12-26T00:57:58.566Z,5.60
2018-12-26T01:00:29.424Z,5.50
2018-12-26T01:03:00.719Z,5.60
2018-12-26T01:05:31.547Z,5.60
2018-12-26T01:08:02.409Z,5.60
2018-12-26T01:10:33.269Z,5.60
2018-12-26T01:13:04.443Z,5.60
2018-12-26T01:15:35.278Z,5.60
2018-12-26T01:18:06.861Z,5.60
2018-12-26T01:20:37.585Z,5.70
2018-12-26T01:23:08.296Z,5.70
2018-12-26T01:25:39.113Z,5.70
2018-12-26T01:28:10.212Z,5.70
2018-12-26T01:30:42.018Z,5.70
2018-12-26T01:33:12.841Z,5.70
2018-12-26T01:35:43.883Z,5.70
2018-12-26T01:38:14.688Z,5.80
2018-12-26T01:40:45.594Z,5.70
2018-12-26T01:43:16.656Z,5.70
2018-12-26T01:45:47.718Z,5.80
2018-12-26T01:48:18.566Z,5.80
2018-12-26T01:50:49.391Z,5.70
2018-12-26T01:53:20.162Z,5.80
2018-12-26T01:55:50.939Z,5.80
2018-12-26T01:58:21.759Z,5.80
2018-12-26T02:00:52.610Z,5.80
2018-12-26T02:03:23.417Z,5.90
2018-12-26T02:05:54.284Z,5.90
2018-12-26T02:08:25.302Z,5.90
2018-12-26T02:10:56.194Z,5.80
2018-12-26T02:13:27.070Z,5.90
2018-12-26T02:15:57.984Z,6.00
2018-12-26T02:18:28.811Z,5.90
2018-12-26T02:21:00.301Z,5.90
2018-12-26T02:23:30.965Z,6.00
2018-12-26T02:26:02.124Z,5.90
2018-12-26T02:28:32.777Z,5.90
2018-12-26T02:31:05.023Z,6.00
2018-12-26T02:33:35.651Z,6.00
2018-12-26T02:36:06.451Z,6.10
2018-12-26T02:38:37.202Z,6.10
2018-12-26T02:41:08.224Z,6.00
2018-12-26T02:43:39.147Z,6.10
2018-12-26T02:46:10.274Z,6.10
2018-12-26T02:48:42.126Z,6.10
2018-12-26T02:51:12.850Z,6.00
2018-12-26T02:53:43.780Z,6.00
2018-12-26T02:56:14.454Z,6.10
2018-12-26T02:58:45.139Z,6.10
2018-12-26T03:01:16.332Z,6.10
2018-12-26T03:03:47.001Z,6.10
2018-12-26T03:06:17.729Z,6.20
2018-12-26T03:08:48.421Z,6.20
2018-12-26T03:11:19.137Z,6.10
2018-12-26T03:13:49.886Z,6.10
2018-12-26T03:16:20.529Z,6.10
2018-12-26T03:18:51.182Z,6.20
2018-12-26T03:21:21.804Z,6.20
2018-12-26T03:23:52.500Z,6.10
2018-12-26T03:26:24.246Z,6.10
2018-12-26T03:28:54.916Z,6.10
2018-12-26T03:31:25.563Z,6.10
2018-12-26T03:33:56.270Z,6.20
2018-12-26T03:36:27.185Z,6.10
2018-12-26T03:38:57.884Z,6.10
2018-12-26T03:41:29.372Z,6.10
2018-12-26T03:44:00.017Z,6.10
2018-12-26T03:46:30.978Z,6.10
2018-12-26T03:49:01.855Z,6.10
2018-12-26T03:51:32.511Z,6.10
2018-12-26T03:54:03.214Z,6.10
2018-12-26T03:56:33.910Z,6.10
2018-12-26T03:59:04.771Z,6.10
2018-12-26T04:01:36.389Z,6.10
2018-12-26T04:04:08.706Z,6.00
2018-12-26T04:06:40.062Z,6.00
2018-12-26T04:09:11.058Z,6.00
2018-12-26T04:11:41.852Z,6.00
2018-12-26T04:14:12.564Z,6.00
2018-12-26T04:16:43.334Z,6.00
2018-12-26T04:19:14.314Z,6.00
2018-12-26T04:21:45.761Z,5.90
2018-12-26T04:24:16.781Z,6.00
2018-12-26T04:26:47.462Z,6.00
2018-12-26T04:29:18.175Z,5.90
2018-12-26T04:31:48.837Z,6.00
2018-12-26T04:34:19.548Z,5.90
2018-12-26T04:36:50.241Z,5.80
2018-12-26T04:39:21.030Z,5.70
2018-12-26T04:41:51.719Z,5.70
2018-12-26T04:44:22.430Z,5.70
2018-12-26T04:46:53.041Z,5.70
2018-12-26T04:49:23.913Z,5.70
2018-12-26T04:51:54.766Z,5.70
2018-12-26T04:54:25.425Z,5.70
2018-12-26T04:56:56.069Z,5.80
2018-12-26T04:59:26.755Z,5.70
2018-12-26T05:01:57.472Z,5.80
2018-12-26T05:04:28.101Z,5.80
2018-12-26T05:06:58.767Z,5.70
2018-12-26T05:09:29.484Z,5.70
2018-12-26T05:12:00.197Z,5.80
2018-12-26T05:14:30.949Z,5.70
2018-12-26T05:17:01.634Z,5.80
2018-12-26T05:19:32.255Z,5.70
2018-12-26T05:22:03.078Z,5.70
2018-12-26T05:24:33.848Z,5.70
2018-12-26T05:27:04.520Z,5.70
2018-12-26T05:29:35.193Z,5.70
2018-12-26T05:32:05.861Z,5.70
2018-12-26T05:34:39.196Z,5.70
2018-12-26T05:37:14.485Z,5.70
2018-12-26T05:39:49.559Z,5.70
2018-12-26T05:42:20.303Z,5.70
2018-12-26T05:44:50.992Z,5.70
2018-12-26T05:47:21.659Z,5.70
2018-12-26T05:49:52.366Z,5.80
2018-12-26T05:52:23.086Z,5.70
2018-12-26T05:54:53.782Z,5.70
2018-12-26T05:57:24.479Z,5.80
2018-12-26T05:59:55.150Z,5.80
2018-12-26T06:02:25.822Z,5.80
2018-12-26T06:04:56.480Z,5.80
2018-12-26T06:07:27.106Z,5.80
2018-12-26T06:09:57.801Z,5.70
2018-12-26T06:12:28.446Z,5.70
2018-12-26T06:14:59.158Z,5.70
2018-12-26T06:17:29.884Z,5.80
2018-12-26T06:20:00.619Z,5.70
2018-12-26T06:22:31.313Z,5.80
2018-12-26T06:25:02.025Z,5.70
2018-12-26T06:27:32.715Z,5.70
2018-12-26T06:30:06.070Z,5.70
2018-12-26T06:32:36.802Z,5.70
2018-12-26T06:35:07.443Z,5.70
2018-12-26T06:37:38.282Z,5.60
2018-12-26T06:40:09.897Z,5.60
2018-12-26T06:42:42.368Z,5.50
2018-12-26T06:45:13.649Z,5.50
2018-12-26T06:47:44.336Z,5.40
2018-12-26T06:50:15.900Z,5.40
2018-12-26T06:52:46.565Z,5.40
2018-12-26T06:55:17.242Z,5.40
2018-12-26T06:57:47.895Z,5.40
2018-12-26T07:00:18.536Z,5.40
2018-12-26T07:02:49.293Z,5.40
2018-12-26T07:05:19.965Z,5.30
2018-12-26T07:07:50.624Z,5.30
2018-12-26T07:10:21.384Z,5.30
2018-12-26T07:12:52.058Z,5.40
2018-12-26T07:15:22.897Z,5.40
2018-12-26T07:17:53.828Z,5.40
2018-12-26T07:20:24.622Z,5.30
2018-12-26T07:22:55.464Z,5.30
2018-12-26T07:25:26.236Z,5.40
2018-12-26T07:27:56.992Z,5.50
2018-12-26T07:30:27.711Z,5.50
2018-12-26T07:32:58.329Z,5.50
2018-12-26T07:35:29.336Z,5.40
2018-12-26T07:38:00.120Z,5.50
2018-12-26T07:40:30.811Z,5.40
2018-12-26T07:43:01.599Z,5.40
2018-12-26T07:45:32.383Z,5.40
2018-12-26T07:48:03.109Z,5.40
2018-12-26T07:50:36.748Z,5.40
2018-12-26T07:53:07.397Z,5.40
2018-12-26T07:55:40.873Z,5.40
2018-12-26T07:58:17.552Z,5.40
2018-12-26T08:00:44.675Z,5.40
2018-12-26T08:03:15.959Z,5.40
2018-12-26T08:05:50.859Z,5.40
2018-12-26T08:08:22.225Z,5.40
2018-12-26T08:10:52.993Z,5.30
2018-12-26T08:13:23.777Z,5.30
2018-12-26T08:15:54.475Z,5.30
2018-12-26T08:18:25.216Z,5.30
2018-12-26T08:20:55.998Z,5.30
2018-12-26T08:23:26.680Z,5.30
2018-12-26T08:25:57.389Z,5.40
2018-12-26T08:28:28.122Z,5.30
2018-12-26T08:30:58.796Z,5.40
2018-12-26T08:33:29.454Z,5.40
2018-12-26T08:36:00.144Z,5.50
2018-12-26T08:38:30.835Z,5.40
2018-12-26T08:41:01.888Z,5.50
2018-12-26T08:43:32.494Z,5.50
2018-12-26T08:46:03.214Z,5.50
2018-12-26T08:48:33.943Z,5.50
2018-12-26T08:51:05.752Z,5.40
2018-12-26T08:53:36.504Z,5.40
2018-12-26T08:56:07.241Z,5.40
2018-12-26T08:58:38.195Z,5.50
2018-12-26T09:01:11.402Z,5.50
2018-12-26T09:03:43.955Z,5.50
2018-12-26T09:06:15.667Z,5.60
2018-12-26T09:08:49.251Z,5.50
2018-12-26T09:11:20.171Z,5.60
2018-12-26T09:13:54.414Z,5.70
2018-12-26T09:16:25.112Z,5.60
2018-12-26T09:18:55.991Z,5.70
2018-12-26T09:21:26.765Z,5.50
2018-12-26T09:23:57.430Z,5.50
2018-12-26T09:26:33.462Z,5.50
2018-12-26T09:29:04.114Z,5.40
2018-12-26T09:31:34.874Z,5.30
2018-12-26T09:34:05.841Z,5.40
2018-12-26T09:36:36.589Z,5.30
2018-12-26T09:39:10.536Z,5.30
2018-12-26T09:41:41.239Z,5.30
2018-12-26T09:44:11.969Z,5.40
2018-12-26T09:46:42.644Z,5.40
2018-12-26T09:49:13.566Z,5.40
2018-12-26T09:51:44.553Z,5.40
2018-12-26T09:54:15.418Z,5.30
2018-12-26T09:56:46.104Z,5.20
2018-12-26T09:59:16.968Z,5.30
2018-12-26T10:01:47.695Z,5.30
2018-12-26T10:04:21.628Z,5.30
2018-12-26T10:06:52.375Z,5.30
2018-12-26T10:09:23.218Z,5.20
2018-12-26T10:11:54.047Z,5.20
2018-12-26T10:14:25.778Z,5.20
2018-12-26T10:16:56.707Z,5.20
2018-12-26T10:19:28.534Z,5.20
2018-12-26T10:21:59.687Z,5.10
2018-12-26T10:24:33.731Z,5.10
2018-12-26T10:27:05.825Z,5.10
2018-12-26T10:29:36.886Z,5.00
2018-12-26T10:32:07.790Z,5.00
2018-12-26T10:34:38.544Z,5.00
2018-12-26T10:37:09.775Z,5.00
2018-12-26T10:39:42.007Z,5.00
2018-12-26T10:42:12.796Z,4.90
2018-12-26T10:44:43.389Z,4.90
2018-12-26T10:47:14.244Z,4.90
2018-12-26T10:49:45.080Z,4.90
2018-12-26T10:52:22.890Z,4.80
2018-12-26T10:54:53.635Z,4.80
2018-12-26T10:57:25.352Z,4.80
2018-12-26T10:59:57.701Z,4.90
2018-12-26T11:02:28.522Z,4.90
2018-12-26T11:04:59.244Z,4.90
2018-12-26T11:07:29.948Z,4.90
2018-12-26T11:10:00.645Z,4.90
2018-12-26T11:12:31.502Z,4.80
2018-12-26T11:15:02.234Z,4.90
2018-12-26T11:17:33.290Z,4.80
2018-12-26T11:20:05.973Z,4.90
2018-12-26T11:22:36.755Z,4.80
2018-12-26T11:25:08.936Z,4.80
2018-12-26T11:27:40.339Z,4.90
2018-12-26T11:30:12.163Z,4.90
2018-12-26T11:32:43.581Z,4.90
2018-12-26T11:35:17.430Z,4.90
2018-12-26T11:37:48.637Z,4.90
2018-12-26T11:40:19.379Z,5.00
2018-12-26T11:42:50.158Z,5.00
2018-12-26T11:45:21.611Z,5.00
2018-12-26T11:47:53.527Z,5.00
2018-12-26T11:50:25.418Z,5.00
2018-12-26T11:52:56.337Z,5.00
2018-12-26T11:55:27.477Z,5.00
2018-12-26T11:57:58.369Z,5.10
2018-12-26T12:00:29.117Z,5.00
2018-12-26T12:02:59.797Z,5.00
2018-12-26T12:05:31.434Z,5.10
2018-12-26T12:08:02.196Z,5.10
2018-12-26T12:10:33.423Z,5.10
2018-12-26T12:13:04.193Z,5.00
2018-12-26T12:15:34.861Z,5.00
2018-12-26T12:18:05.698Z,5.00
2018-12-26T12:20:36.355Z,5.00
2018-12-26T12:23:07.124Z,5.00
2018-12-26T12:25:37.836Z,5.10
2018-12-26T12:28:09.565Z,5.20
2018-12-26T12:30:41.988Z,5.20
2018-12-26T12:33:12.742Z,5.20
2018-12-26T12:35:43.453Z,5.10
2018-12-26T12:38:14.272Z,5.20
2018-12-26T12:40:44.939Z,5.20
2018-12-26T12:43:15.584Z,5.30
2018-12-26T12:45:46.293Z,5.20
2018-12-26T12:48:17.195Z,5.20
2018-12-26T12:50:48.072Z,5.20
2018-12-26T12:53:18.749Z,5.20
2018-12-26T12:55:49.737Z,5.20
2018-12-26T12:58:20.459Z,5.20
2018-12-26T13:00:51.276Z,5.20
2018-12-26T13:03:21.991Z,5.30
2018-12-26T13:05:52.737Z,5.30
2018-12-26T13:08:23.466Z,5.30
2018-12-26T13:10:54.309Z,5.30
2018-12-26T13:13:26.016Z,5.40
2018-12-26T13:16:01.099Z,5.40
2018-12-26T13:18:32.302Z,5.40
2018-12-26T13:21:03.095Z,5.40
2018-12-26T13:23:33.935Z,5.40
2018-12-26T13:26:04.640Z,5.40
2018-12-26T13:28:35.678Z,5.40
2018-12-26T13:31:06.996Z,5.50
2018-12-26T13:33:39.251Z,5.40
2018-12-26T13:36:11.001Z,5.40
2018-12-26T13:38:41.800Z,5.40
2018-12-26T13:41:12.792Z,5.40
2018-12-26T13:43:43.490Z,5.40
2018-12-26T13:46:15.328Z,5.50
2018-12-26T13:48:46.347Z,5.50
2018-12-26T13:51:19.030Z,5.50
2018-12-26T13:53:49.912Z,5.50
2018-12-26T13:56:20.703Z,5.40
2018-12-26T13:58:51.649Z,5.40
2018-12-26T14:01:23.026Z,5.40
2018-12-26T14:03:53.809Z,5.40
2018-12-26T14:06:24.467Z,5.40
2018-12-26T14:08:55.235Z,5.40
2018-12-26T14:11:27.641Z,5.40
2018-12-26T14:13:58.481Z,5.40
2018-12-26T14:16:29.112Z,5.40
2018-12-26T14:19:00.117Z,5.40
2018-12-26T14:21:31.415Z,5.40
2018-12-26T14:24:03.691Z,5.40
2018-12-26T14:26:36.391Z,5.40
2018-12-26T14:29:07.463Z,5.40
2018-12-26T14:31:38.124Z,5.40
2018-12-26T14:34:09.395Z,5.50
2018-12-26T14:36:40.831Z,5.50
2018-12-26T14:39:11.871Z,5.40
2018-12-26T14:41:42.575Z,5.40
2018-12-26T14:44:13.262Z,5.50
2018-12-26T14:46:44.583Z,5.50
2018-12-26T14:49:15.319Z,5.50
2018-12-26T14:51:46.606Z,5.50
2018-12-26T14:54:18.913Z,5.50
2018-12-26T14:56:49.819Z,5.50
2018-12-26T14:59:21.743Z,5.50
2018-12-26T15:01:54.325Z,5.50
2018-12-26T15:04:25.019Z,5.50
2018-12-26T15:06:55.712Z,5.50
2018-12-26T15:09:26.404Z,5.50
2018-12-26T15:11:57.111Z,5.50
2018-12-26T15:14:27.840Z,5.50
2018-12-26T15:16:59.093Z,5.50
2018-12-26T15:19:31.558Z,5.50
2018-12-26T15:22:02.593Z,5.50
2018-12-26T15:24:33.307Z,5.50
2018-12-26T15:27:04.073Z,5.50
2018-12-26T15:29:34.816Z,5.60
2018-12-26T15:32:05.575Z,5.60
2018-12-26T15:34:36.328Z,5.50
2018-12-26T15:37:07.341Z,5.60
2018-12-26T15:39:38.573Z,5.60
2018-12-26T15:42:09.491Z,5.60
2018-12-26T15:44:40.611Z,5.50
2018-12-26T15:47:12.398Z,5.50
2018-12-26T15:49:43.982Z,5.50
2018-12-26T15:52:14.969Z,5.50
2018-12-26T15:54:46.151Z,5.60
2018-12-26T15:57:16.968Z,5.60
2018-12-26T15:59:47.892Z,5.60
2018-12-26T16:02:18.776Z,5.60
2018-12-26T16:04:49.511Z,5.60
2018-12-26T16:07:20.418Z,5.60
2018-12-26T16:09:51.215Z,5.60
2018-12-26T16:12:21.948Z,5.60
2018-12-26T16:14:52.777Z,5.60
2018-12-26T16:17:23.462Z,5.60
2018-12-26T16:19:54.221Z,5.60
2018-12-26T16:22:25.441Z,5.60
2018-12-26T16:24:56.440Z,5.60
2018-12-26T16:27:27.263Z,5.60
2018-12-26T16:29:58.014Z,5.60
2018-12-26T16:32:29.325Z,5.60
2018-12-26T16:35:00.288Z,5.60
2018-12-26T16:37:33.877Z,5.60
2018-12-26T16:40:04.790Z,5.60
2018-12-26T16:42:35.663Z,5.60
2018-12-26T16:45:06.792Z,5.60
2018-12-26T16:47:37.512Z,5.60
2018-12-26T16:50:09.752Z,5.60
2018-12-26T16:52:40.676Z,5.60
2018-12-26T16:55:12.458Z,5.60
2018-12-26T16:57:43.934Z,5.60
2018-12-26T17:00:15.134Z,5.50
2018-12-26T17:02:46.337Z,5.60
2018-12-26T17:05:17.109Z,5.60
2018-12-26T17:07:48.380Z,5.50
2018-12-26T17:10:23.126Z,5.60
2018-12-26T17:12:53.992Z,5.60
2018-12-26T17:15:24.693Z,5.60
2018-12-26T17:17:55.518Z,5.60
2018-12-26T17:20:26.246Z,5.60
2018-12-26T17:22:57.018Z,5.60
2018-12-26T17:25:27.745Z,5.60
2018-12-26T17:27:58.420Z,5.70
2018-12-26T17:30:29.419Z,5.70
2018-12-26T17:33:01.051Z,5.80
2018-12-26T17:35:32.309Z,5.80
2018-12-26T17:38:03.188Z,5.80
2018-12-26T17:40:33.939Z,5.80
2018-12-26T17:43:04.800Z,5.80
2018-12-26T17:45:35.692Z,5.80
2018-12-26T17:48:06.538Z,5.80
2018-12-26T17:50:52.310Z,5.80
2018-12-26T17:54:09.625Z,5.80
2018-12-26T17:57:06.769Z,5.90
2018-12-26T18:00:42.067Z,5.90
2018-12-26T18:03:14.536Z,5.90
2018-12-26T18:05:46.563Z,6.00
2018-12-26T18:08:17.372Z,6.00
2018-12-26T18:10:48.909Z,5.90
2018-12-26T18:13:19.686Z,6.00
2018-12-26T18:15:50.894Z,5.90
2018-12-26T18:18:21.694Z,5.90
2018-12-26T18:20:52.653Z,5.90
2018-12-26T18:23:23.681Z,6.00
2018-12-26T18:25:54.520Z,6.00
2018-12-26T18:28:25.481Z,6.00
2018-12-26T18:30:56.321Z,6.00
2018-12-26T18:33:27.109Z,6.00
2018-12-26T18:35:57.877Z,6.00
2018-12-26T18:38:28.669Z,6.10
2018-12-26T18:40:59.526Z,6.00
2018-12-26T18:43:30.346Z,6.00
2018-12-26T18:46:01.180Z,6.00
2018-12-26T18:48:32.117Z,6.10
2018-12-26T18:51:03.201Z,6.10
2018-12-26T18:53:34.149Z,6.10
2018-12-26T18:56:04.915Z,6.10
2018-12-26T18:58:35.717Z,6.10
2018-12-26T19:01:16.284Z,6.10
2018-12-26T19:03:47.218Z,6.10
2018-12-26T19:06:17.971Z,6.20
2018-12-26T19:08:48.713Z,6.20
2018-12-26T19:11:19.776Z,6.20
2018-12-26T19:13:51.198Z,6.20
2018-12-26T19:16:21.933Z,6.20
2018-12-26T19:18:53.275Z,6.20
2018-12-26T19:21:24.100Z,6.20
2018-12-26T19:23:57.754Z,6.20
2018-12-26T19:26:28.620Z,6.20
2018-12-26T19:28:59.397Z,6.10
2018-12-26T19:31:39.250Z,6.10
2018-12-26T19:34:04.485Z,6.10
2018-12-26T19:36:37.462Z,6.10
2018-12-26T19:39:12.761Z,6.10
2018-12-26T19:41:44.003Z,6.10
2018-12-26T19:44:16.478Z,6.10
2018-12-26T19:46:47.667Z,6.10
2018-12-26T19:49:21.847Z,6.10
2018-12-26T19:51:53.029Z,6.00
2018-12-26T19:54:25.372Z,6.00
2018-12-26T19:56:56.996Z,6.00
2018-12-26T19:59:29.676Z,6.00
2018-12-26T20:02:00.541Z,6.10
2018-12-26T20:04:31.403Z,6.10
2018-12-26T20:07:03.488Z,6.10
2018-12-26T20:09:45.719Z,6.10
2018-12-26T20:12:32.500Z,6.10
2018-12-26T20:15:15.117Z,6.10
2018-12-26T20:17:49.887Z,6.10
2018-12-26T20:20:21.022Z,6.10
2018-12-26T20:22:51.873Z,6.10
2018-12-26T20:25:23.352Z,6.10
2018-12-26T20:27:55.298Z,6.10
2018-12-26T20:30:26.615Z,6.20
2018-12-26T20:33:01.385Z,6.20
2018-12-26T20:35:32.683Z,6.20
2018-12-26T20:38:03.627Z,6.20
2018-12-26T20:40:34.663Z,6.20
2018-12-26T20:43:05.814Z,6.30
2018-12-26T20:45:36.523Z,6.30
2018-12-26T20:48:07.217Z,6.20
2018-12-26T20:50:37.896Z,6.20
2018-12-26T20:53:08.715Z,6.20
2018-12-26T20:55:39.552Z,6.20
2018-12-26T20:58:10.915Z,6.30
2018-12-26T21:00:43.323Z,6.30
2018-12-26T21:03:14.038Z,6.30
2018-12-26T21:05:45.141Z,6.30
2018-12-26T21:08:16.013Z,6.40
2018-12-26T21:10:47.052Z,6.30
2018-12-26T21:13:18.258Z,6.40
2018-12-26T22:45:57.206Z,6.40
2018-12-26T22:48:28.324Z,6.60
2018-12-26T22:50:59.214Z,6.60
2018-12-26T22:53:30.272Z,6.60
2018-12-26T22:56:01.287Z,6.70
2018-12-26T22:58:32.077Z,6.70
2018-12-26T23:01:03.382Z,6.70
